createdAt,value
2023-01-17T00:01:20.257Z,10.02
2023-01-17T00:04:08.796Z,9.95
2023-01-17T00:06:58.651Z,9.91
2023-01-17T00:10:04.965Z,9.74
2023-01-17T00:12:41.268Z,9.60
2023-01-17T00:15:11.025Z,9.56
2023-01-17T00:17:41.205Z,9.27
2023-01-17T00:20:37.303Z,9.32
2023-01-17T00:23:35.130Z,9.14
2023-01-17T00:26:07.409Z,9.12
2023-01-17T00:28:38.849Z,8.91
2023-01-17T00:31:18.041Z,9.00
2023-01-17T00:33:49.552Z,8.79
2023-01-17T00:36:18.381Z,8.95
2023-01-17T00:38:49.376Z,8.90
2023-01-17T00:41:27.464Z,9.05
2023-01-17T00:44:15.228Z,9.02
2023-01-17T00:47:06.068Z,8.88
2023-01-17T00:49:56.695Z,8.84
2023-01-17T00:52:44.252Z,8.82
2023-01-17T00:55:32.278Z,8.70
2023-01-17T00:58:26.500Z,8.63
2023-01-17T01:01:14.703Z,8.56
2023-01-17T01:04:03.577Z,8.43
2023-01-17T01:06:50.880Z,8.35
2023-01-17T01:09:37.622Z,8.22
2023-01-17T01:12:25.168Z,8.16
2023-01-17T01:15:13.202Z,8.09
2023-01-17T01:18:00.467Z,7.97
2023-01-17T01:20:48.260Z,7.88
2023-01-17T01:23:35.519Z,7.87
2023-01-17T01:26:23.373Z,7.77
2023-01-17T01:29:10.765Z,7.74
2023-01-17T01:31:58.468Z,7.72
2023-01-17T01:34:50.696Z,7.68
2023-01-17T01:37:19.806Z,7.63
2023-01-17T01:39:48.761Z,7.61
2023-01-17T01:42:18.369Z,7.57
2023-01-17T01:44:50.262Z,7.54
2023-01-17T01:47:36.552Z,7.43
2023-01-17T01:50:11.330Z,7.34
2023-01-17T01:52:45.826Z,7.29
2023-01-17T01:55:20.145Z,7.30
2023-01-17T01:57:54.081Z,7.25
2023-01-17T02:00:37.823Z,7.23
2023-01-17T02:03:11.923Z,7.24
2023-01-17T02:05:53.598Z,7.28
2023-01-17T02:08:25.656Z,7.19
2023-01-17T02:10:55.345Z,7.17
2023-01-17T02:13:24.766Z,7.12
2023-01-17T02:16:21.951Z,7.10
2023-01-17T02:19:15.055Z,7.09
2023-01-17T02:22:30.104Z,6.93
2023-01-17T02:25:44.810Z,6.79
2023-01-17T02:28:22.753Z,6.54
2023-01-17T02:30:58.758Z,6.40
2023-01-17T02:33:52.231Z,6.49
2023-01-17T02:36:54.339Z,6.62
2023-01-17T02:39:38.400Z,6.73
2023-01-17T02:42:17.188Z,6.28
2023-01-17T02:44:46.282Z,6.34
2023-01-17T02:47:27.731Z,6.46
2023-01-17T02:50:02.949Z,6.62
2023-01-17T02:52:54.423Z,6.40
2023-01-17T02:55:26.400Z,6.59
2023-01-17T02:58:22.008Z,6.53
2023-01-17T03:01:21.780Z,6.51
2023-01-17T03:04:28.018Z,6.52
2023-01-17T03:07:04.446Z,6.43
2023-01-17T03:09:34.334Z,6.33
2023-01-17T03:12:05.521Z,6.46
2023-01-17T03:14:35.118Z,6.17
2023-01-17T03:17:04.216Z,6.07
2023-01-17T03:19:33.260Z,6.00
2023-01-17T03:22:03.282Z,6.12
2023-01-17T03:24:34.570Z,6.19
2023-01-17T03:27:03.617Z,5.93
2023-01-17T03:29:32.737Z,6.01
2023-01-17T03:32:02.071Z,6.06
2023-01-17T03:34:37.410Z,5.94
2023-01-17T03:37:09.124Z,5.98
2023-01-17T03:39:38.184Z,5.92
2023-01-17T03:42:07.233Z,5.97
2023-01-17T03:44:39.423Z,5.95
2023-01-17T03:47:12.767Z,5.87
2023-01-17T03:49:44.715Z,5.75
2023-01-17T03:52:13.709Z,5.67
2023-01-17T03:54:42.671Z,5.74
2023-01-17T03:57:13.154Z,5.74
2023-01-17T03:59:42.077Z,5.90
2023-01-17T04:02:11.641Z,5.69
2023-01-17T04:04:40.739Z,5.41
2023-01-17T04:07:09.641Z,5.52
2023-01-17T04:09:41.442Z,5.51
2023-01-17T04:12:12.531Z,5.35
2023-01-17T04:14:41.981Z,5.30
2023-01-17T04:17:15.478Z,5.70
2023-01-17T04:19:44.439Z,5.81
2023-01-17T04:22:14.418Z,5.62
2023-01-17T04:24:43.432Z,5.54
2023-01-17T04:27:15.223Z,5.63
2023-01-17T04:29:46.599Z,5.79
2023-01-17T04:32:15.861Z,5.70
2023-01-17T04:34:47.879Z,5.53
2023-01-17T04:37:16.860Z,5.29
2023-01-17T04:39:48.843Z,5.62
2023-01-17T04:42:18.005Z,5.33
2023-01-17T04:44:47.887Z,5.54
2023-01-17T04:47:16.806Z,5.73
2023-01-17T04:49:47.753Z,5.70
2023-01-17T04:52:19.490Z,5.70
2023-01-17T04:54:50.404Z,5.66
2023-01-17T04:57:20.671Z,5.62
2023-01-17T04:59:49.632Z,5.71
2023-01-17T05:02:18.546Z,5.77
2023-01-17T05:04:50.572Z,5.75
2023-01-17T05:07:19.705Z,5.32
2023-01-17T05:09:49.034Z,5.32
2023-01-17T05:12:17.983Z,5.61
2023-01-17T05:14:51.387Z,5.51
2023-01-17T05:17:21.054Z,5.78
2023-01-17T05:19:50.037Z,5.65
2023-01-17T05:22:33.687Z,5.84
2023-01-17T05:25:30.214Z,5.44
2023-01-17T05:28:04.191Z,5.47
2023-01-17T05:30:35.940Z,5.21
2023-01-17T05:33:08.843Z,5.15
2023-01-17T05:35:49.620Z,5.40
2023-01-17T05:38:19.091Z,5.35
2023-01-17T05:40:49.034Z,5.43
2023-01-17T05:43:18.114Z,5.49
2023-01-17T05:45:50.694Z,5.29
2023-01-17T05:48:19.744Z,5.40
2023-01-17T05:50:49.362Z,5.05
2023-01-17T05:53:18.650Z,5.55
2023-01-17T05:55:50.735Z,5.46
2023-01-17T05:58:23.227Z,5.61
2023-01-17T06:00:57.570Z,5.52
2023-01-17T06:03:32.162Z,5.38
2023-01-17T06:06:01.155Z,5.53
2023-01-17T06:08:30.037Z,5.64
2023-01-17T06:11:02.193Z,5.63
2023-01-17T06:13:33.882Z,5.53
2023-01-17T06:16:04.922Z,5.47
2023-01-17T06:18:34.788Z,5.56
2023-01-17T06:21:03.727Z,5.43
2023-01-17T06:23:33.069Z,5.53
2023-01-17T06:26:05.288Z,5.52
2023-01-17T06:28:36.929Z,5.36
2023-01-17T06:31:10.347Z,5.61
2023-01-17T06:33:41.327Z,5.22
2023-01-17T06:36:10.548Z,5.28
2023-01-17T06:38:41.931Z,5.58
2023-01-17T06:41:13.185Z,5.35
2023-01-17T06:43:42.207Z,5.47
2023-01-17T06:46:13.240Z,5.47
2023-01-17T06:48:44.455Z,5.64
2023-01-17T06:51:16.370Z,5.32
2023-01-17T06:53:45.548Z,5.35
2023-01-17T06:56:14.439Z,5.40
2023-01-17T06:58:43.436Z,5.50
2023-01-17T07:01:16.760Z,5.35
2023-01-17T07:03:45.848Z,5.27
2023-01-17T07:06:14.732Z,5.23
2023-01-17T07:08:43.701Z,5.25
2023-01-17T07:11:13.196Z,5.22
2023-01-17T07:13:42.350Z,5.60
2023-01-17T07:16:18.691Z,5.40
2023-01-17T07:18:48.152Z,5.43
2023-01-17T07:21:17.415Z,5.43
2023-01-17T07:23:46.427Z,5.60
2023-01-17T07:26:19.824Z,5.48
2023-01-17T07:28:48.952Z,5.51
2023-01-17T07:31:17.791Z,5.72
2023-01-17T07:33:46.782Z,5.78
2023-01-17T07:36:15.730Z,5.75
2023-01-17T07:38:47.518Z,5.72
2023-01-17T07:41:16.565Z,5.67
2023-01-17T07:43:48.348Z,5.27
2023-01-17T07:46:17.727Z,5.15
2023-01-17T07:48:46.627Z,5.35
2023-01-17T07:51:18.785Z,5.28
2023-01-17T07:53:47.765Z,5.15
2023-01-17T07:56:16.611Z,5.39
2023-01-17T07:58:45.719Z,5.68
2023-01-17T08:01:17.903Z,5.71
2023-01-17T08:03:49.197Z,5.28
2023-01-17T08:06:21.509Z,5.22
2023-01-17T08:08:52.363Z,5.60
2023-01-17T08:11:23.281Z,5.61
2023-01-17T08:13:58.158Z,5.70
2023-01-17T08:16:29.329Z,5.62
2023-01-17T08:19:01.674Z,5.65
2023-01-17T08:21:30.677Z,5.74
2023-01-17T08:23:59.736Z,5.46
2023-01-17T08:26:28.744Z,5.31
2023-01-17T08:29:01.214Z,5.23
2023-01-17T08:31:33.240Z,5.51
2023-01-17T08:34:03.396Z,5.18
2023-01-17T08:36:32.501Z,5.42
2023-01-17T08:39:01.741Z,5.34
2023-01-17T08:41:30.735Z,5.27
2023-01-17T08:43:59.951Z,5.39
2023-01-17T08:46:32.092Z,5.80
2023-01-17T08:49:03.520Z,5.44
2023-01-17T08:51:35.934Z,5.36
2023-01-17T08:54:05.416Z,5.59
2023-01-17T08:56:36.930Z,5.72
2023-01-17T08:59:05.881Z,5.48
2023-01-17T09:01:41.453Z,5.26
2023-01-17T09:04:12.108Z,5.38
2023-01-17T09:06:48.998Z,5.52
2023-01-17T09:09:19.027Z,5.47
2023-01-17T09:11:48.064Z,5.79
2023-01-17T09:14:20.174Z,5.52
2023-01-17T09:16:49.515Z,5.71
2023-01-17T09:19:18.775Z,5.65
2023-01-17T09:21:47.732Z,5.65
2023-01-17T09:24:17.761Z,5.46
2023-01-17T09:26:46.685Z,5.55
2023-01-17T09:29:19.523Z,5.53
2023-01-17T09:31:48.932Z,5.60
2023-01-17T09:34:19.459Z,5.61
2023-01-17T09:36:48.414Z,5.80
2023-01-17T09:39:18.688Z,5.81
2023-01-17T09:41:50.254Z,5.50
2023-01-17T09:44:37.044Z,5.37
2023-01-17T09:47:29.042Z,5.65
2023-01-17T09:50:04.672Z,5.27
2023-01-17T09:52:34.232Z,5.15
2023-01-17T09:55:03.531Z,5.09
2023-01-17T09:58:12.364Z,5.16
2023-01-17T10:01:00.463Z,5.45
2023-01-17T10:03:49.946Z,5.45
2023-01-17T10:06:44.207Z,5.57
2023-01-17T10:09:34.930Z,5.50
2023-01-17T10:12:20.099Z,5.53
2023-01-17T10:15:18.963Z,5.75
2023-01-17T10:17:47.887Z,5.64
2023-01-17T10:20:51.970Z,5.79
2023-01-17T10:23:53.307Z,5.76
2023-01-17T10:26:26.357Z,5.42
2023-01-17T10:29:01.829Z,5.49
2023-01-17T10:31:56.684Z,5.52
2023-01-17T10:34:44.283Z,5.70
2023-01-17T10:37:41.409Z,5.73
2023-01-17T10:40:29.487Z,5.80
2023-01-17T10:43:14.504Z,5.82
2023-01-17T10:45:54.499Z,5.50
2023-01-17T10:48:35.593Z,5.44
2023-01-17T10:51:13.648Z,5.68
2023-01-17T10:53:42.533Z,5.71
2023-01-17T10:56:18.830Z,5.58
2023-01-17T10:58:50.267Z,5.52
2023-01-17T11:01:22.743Z,5.78
2023-01-17T11:03:55.402Z,5.71
2023-01-17T11:06:26.694Z,5.67
2023-01-17T11:08:59.582Z,5.52
2023-01-17T11:11:37.177Z,5.46
2023-01-17T11:14:20.016Z,5.41
2023-01-17T11:17:04.444Z,5.26
2023-01-17T11:19:39.390Z,5.68
2023-01-17T11:22:15.063Z,5.53
2023-01-17T11:24:56.262Z,5.95
2023-01-17T11:27:25.179Z,5.87
2023-01-17T11:30:10.232Z,6.02
2023-01-17T11:32:39.555Z,5.60
2023-01-17T11:35:21.403Z,5.80
2023-01-17T11:37:58.764Z,5.71
2023-01-17T11:40:30.398Z,5.96
2023-01-17T11:43:22.987Z,5.71
2023-01-17T11:46:07.547Z,5.55
2023-01-17T11:48:39.320Z,5.75
2023-01-17T11:51:29.155Z,5.98
2023-01-17T11:54:15.535Z,5.60
2023-01-17T11:56:47.016Z,5.84
2023-01-17T11:59:31.318Z,5.78
2023-01-17T12:02:24.775Z,5.83
2023-01-17T12:05:04.265Z,5.72
2023-01-17T12:07:46.318Z,5.84
2023-01-17T12:10:27.358Z,5.63
2023-01-17T12:13:26.923Z,5.72
2023-01-17T12:16:30.989Z,5.63
2023-01-17T12:19:46.396Z,5.56
2023-01-17T12:22:45.261Z,5.37
2023-01-17T12:25:23.307Z,5.52
2023-01-17T12:28:07.630Z,5.44
2023-01-17T12:30:44.622Z,5.61
2023-01-17T12:33:48.812Z,5.89
2023-01-17T12:36:23.824Z,5.97
2023-01-17T12:38:52.783Z,6.05
2023-01-17T12:41:27.378Z,6.06
2023-01-17T12:44:00.216Z,6.06
2023-01-17T12:46:42.104Z,6.02
2023-01-17T12:49:42.563Z,6.02
2023-01-17T12:52:26.373Z,5.98
2023-01-17T12:55:03.259Z,5.77
2023-01-17T12:58:01.120Z,5.79
2023-01-17T13:00:30.873Z,5.92
2023-01-17T13:03:27.786Z,5.55
2023-01-17T13:05:58.496Z,5.55
2023-01-17T13:08:50.463Z,5.61
2023-01-17T13:11:47.298Z,5.71
2023-01-17T13:14:16.501Z,5.77
2023-01-17T13:16:55.789Z,5.66
2023-01-17T13:19:51.602Z,5.73
2023-01-17T13:22:24.943Z,6.00
2023-01-17T13:25:05.550Z,6.02
2023-01-17T13:28:03.186Z,5.59
2023-01-17T13:30:53.303Z,5.39
2023-01-17T13:33:23.314Z,5.32
2023-01-17T13:36:06.861Z,5.60
2023-01-17T13:38:58.065Z,5.60
2023-01-17T13:41:59.314Z,5.58
2023-01-17T13:44:30.875Z,5.58
2023-01-17T13:47:07.421Z,5.69
2023-01-17T13:49:46.112Z,5.70
2023-01-17T13:52:22.608Z,5.72
2023-01-17T13:54:52.550Z,5.60
2023-01-17T13:57:32.127Z,5.67
2023-01-17T14:00:26.321Z,5.85
2023-01-17T14:02:55.708Z,5.72
2023-01-17T14:05:40.075Z,5.78
2023-01-17T14:08:23.383Z,5.81
2023-01-17T14:10:55.778Z,5.62
2023-01-17T14:13:40.515Z,5.47
2023-01-17T14:16:31.238Z,5.25
2023-01-17T14:19:19.988Z,5.20
2023-01-17T14:21:51.369Z,5.14
2023-01-17T14:24:24.011Z,5.27
2023-01-17T14:27:16.054Z,5.48
2023-01-17T14:29:54.745Z,5.23
2023-01-17T14:32:36.191Z,5.22
2023-01-17T14:35:06.503Z,5.42
2023-01-17T14:38:19.796Z,5.20
2023-01-17T14:40:56.788Z,5.49
2023-01-17T14:43:29.388Z,5.67
2023-01-17T14:46:01.434Z,5.47
2023-01-17T14:48:31.094Z,5.60
2023-01-17T14:51:01.334Z,5.71
2023-01-17T14:53:31.633Z,5.72
2023-01-17T14:56:19.103Z,5.50
2023-01-17T14:58:50.238Z,5.53
2023-01-17T15:01:20.866Z,5.50
2023-01-17T15:03:55.759Z,5.52
2023-01-17T15:06:42.787Z,5.63
2023-01-17T15:25:11.139Z,5.72
2023-01-17T15:27:43.374Z,5.51
2023-01-17T15:30:19.458Z,5.74
2023-01-17T15:32:50.027Z,5.55
2023-01-17T15:35:20.485Z,5.45
2023-01-17T15:37:55.520Z,5.56
2023-01-17T15:40:26.625Z,5.87
2023-01-17T15:43:00.172Z,5.80
2023-01-17T15:45:34.489Z,5.93
2023-01-17T15:48:39.527Z,5.65
2023-01-17T15:51:11.967Z,5.75
2023-01-17T15:53:43.366Z,5.69
2023-01-17T15:56:27.563Z,5.94
2023-01-17T15:58:56.919Z,5.68
2023-01-17T16:01:28.421Z,5.78
2023-01-17T16:03:57.432Z,5.86
2023-01-17T16:06:39.275Z,5.67
2023-01-17T16:09:22.818Z,5.75
2023-01-17T16:11:52.072Z,6.01
2023-01-17T16:14:24.339Z,6.06
2023-01-17T16:16:54.703Z,6.03
2023-01-17T16:19:27.942Z,5.92
2023-01-17T16:21:57.961Z,6.07
2023-01-17T16:24:27.030Z,5.99
2023-01-17T16:26:55.910Z,6.09
2023-01-17T16:29:25.280Z,5.92
2023-01-17T16:31:54.401Z,6.14
2023-01-17T16:34:26.372Z,6.18
2023-01-17T16:36:55.877Z,6.19
2023-01-17T16:39:25.005Z,6.14
2023-01-17T16:42:04.363Z,6.05
2023-01-17T16:44:38.419Z,6.22
2023-01-17T16:47:09.890Z,6.28
2023-01-17T16:58:29.337Z,6.33
2023-01-17T17:01:01.230Z,6.30
2023-01-17T17:03:35.697Z,6.37
2023-01-17T17:06:04.945Z,6.28
2023-01-17T17:08:38.426Z,6.45
2023-01-17T17:14:03.465Z,6.42
2023-01-17T17:25:29.316Z,6.59
2023-01-17T17:27:58.286Z,6.71
2023-01-17T17:30:28.498Z,6.71
2023-01-17T17:32:57.733Z,6.68
2023-01-17T17:35:26.784Z,6.83
2023-01-17T17:37:56.967Z,6.80
2023-01-17T17:40:25.910Z,6.82
2023-01-17T17:42:54.810Z,6.77
2023-01-17T17:45:27.066Z,6.79
2023-01-17T17:47:56.207Z,6.89
2023-01-17T17:50:25.101Z,7.01
2023-01-17T17:52:54.320Z,7.02
2023-01-17T17:55:25.908Z,7.08
2023-01-17T17:57:55.329Z,6.99
2023-01-17T18:00:25.014Z,7.05
2023-01-17T18:02:53.982Z,7.03
2023-01-17T18:05:23.827Z,7.29
2023-01-17T18:07:53.031Z,7.23
2023-01-17T18:10:24.629Z,7.32
2023-01-17T18:12:53.849Z,7.39
2023-01-17T18:15:22.735Z,7.23
2023-01-17T18:17:53.515Z,7.42
2023-01-17T18:20:22.696Z,7.46
2023-01-17T18:22:51.614Z,7.61
2023-01-17T18:25:20.627Z,7.71
2023-01-17T18:27:49.730Z,7.73
2023-01-17T18:30:18.958Z,7.83
2023-01-17T18:32:52.036Z,8.00
2023-01-17T18:35:20.971Z,8.24
2023-01-17T18:37:50.495Z,8.24
2023-01-17T18:40:20.123Z,8.36
2023-01-17T18:42:50.098Z,8.08
2023-01-17T18:45:19.073Z,8.20
2023-01-17T18:47:47.924Z,8.42
2023-01-17T18:50:17.185Z,8.37
2023-01-17T18:52:46.132Z,8.45
2023-01-17T18:55:15.905Z,8.42
2023-01-17T18:57:48.118Z,8.52
2023-01-17T19:36:48.190Z,8.57
2023-01-17T19:39:17.319Z,8.53
2023-01-17T19:41:49.754Z,8.62
2023-01-17T19:44:18.960Z,8.65
2023-01-17T19:46:51.206Z,8.86
2023-01-17T19:49:25.402Z,8.99
2023-01-17T19:51:55.009Z,9.29
2023-01-17T19:54:26.835Z,9.42
2023-01-17T19:56:55.750Z,9.50
2023-01-17T19:59:24.984Z,9.60
2023-01-17T20:01:54.359Z,9.55
2023-01-17T20:04:26.353Z,9.28
2023-01-17T20:06:55.401Z,9.29
2023-01-17T20:09:25.866Z,9.46
2023-01-17T20:11:55.013Z,9.31
2023-01-17T20:14:27.149Z,9.45
2023-01-17T20:16:56.159Z,9.33
2023-01-17T20:19:25.083Z,9.42
2023-01-17T20:21:54.603Z,9.18
2023-01-17T20:24:32.629Z,9.11
2023-01-17T20:27:02.361Z,9.08
2023-01-17T20:29:31.653Z,8.86
2023-01-17T20:32:00.585Z,8.94
2023-01-17T20:34:29.618Z,9.04
2023-01-17T20:37:00.160Z,8.98
2023-01-17T20:39:29.267Z,8.89
2023-01-17T20:41:58.562Z,8.93
2023-01-17T20:44:27.935Z,8.79
2023-01-17T20:46:56.994Z,8.98
2023-01-17T20:49:26.031Z,8.87
2023-01-17T20:51:56.210Z,8.99
2023-01-17T20:54:25.410Z,8.80
2023-01-17T20:56:54.530Z,8.64
2023-01-17T20:59:24.277Z,8.69
2023-01-17T21:06:57.180Z,8.86
2023-01-17T21:09:52.752Z,8.79
2023-01-17T21:12:27.055Z,8.96
2023-01-17T23:48:42.896Z,9.06
2023-01-17T23:51:11.970Z,9.07
2023-01-17T23:53:41.521Z,8.95
2023-01-17T23:56:24.585Z,9.09
2023-01-17T23:58:53.553Z,8.98
